Air Resources Laboratory banner image
Air Resources Laboratory web site National Oceanic and Atmospheric Administration (NOAA)

ok metar


K1F0 170655Z AUTO 00000KT 10SM CLR 26/17 A2991 RMK AO2 T02620171=
K1F0 170715Z AUTO 00000KT 10SM CLR 26/17 A2991 RMK AO2 T02600171=
KADH 170655Z AUTO 30003KT 10SM SCT110 28/18 A2993 RMK AO2=
KADM 170655Z AUTO 35007KT 10SM FEW055 26/18 A2990 RMK AO2=
KAXS 170715Z AUTO 04011KT 7SM CLR 27/20 A3000 RMK AO2 T02700195=
KCLK 170715Z AUTO 03010KT 10SM CLR 23/18 A3004 RMK AO2=
KDUA 170715Z AUTO 22003KT 10SM CLR 28/15 A2991 RMK AO2=
KEND 170655Z AUTO 02014KT 10SM OVC014 22/19 A3001 RMK AO2 CIG 013 RWY17C SLPNO
 T02240193 $=
KFSI 170655Z AUTO 01012KT 10SM CLR 26/21 A2994 RMK AO2 SLPNO T02630206=
KGUY 170700Z AUTO 08009KT 10SM SCT007 BKN110 19/19 A3016 RMK AO2 T01940189=
KLTS 170655Z AUTO 04015G26KT 10SM CLR 27/20 A2995 RMK AO2 SLPNO T02700198 $=
KRVS 170723Z AUTO 02006KT 10SM FEW011 BKN019 24/22 A2993 RMK AO2 LTG DSNT NE
 T02390222=
KTIK 170655Z AUTO 02015KT 10SM SCT110 25/20 A2994 RMK AO2 SLPNO T02500198=
KWDG 170715Z AUTO 01012KT 10SM BKN016 OVC095 22/19 A3001 RMK AO2=
KWWR 170715Z AUTO 02010KT 10SM SCT014 SCT020 BKN085 20/17 A3012 RMK AO2=